TimeEDT,TemperatureF,Dew PointF,Humidity,Sea Level PressureIn,VisibilityMPH,Wind Direction,Wind SpeedMPH,Gust SpeedMPH,PrecipitationIn,Events,Conditions,WindDirDegrees,DateUTC
12:53 AM,75.9,73.0,91,29.93,10.0,SW,5.8,-,N/A,,Mostly Cloudy,220,2013-07-23 04:53:00
1:53 AM,75.9,72.0,87,29.91,10.0,SW,10.4,-,N/A,,Scattered Clouds,220,2013-07-23 05:53:00
2:53 AM,75.0,71.1,87,29.91,10.0,WSW,5.8,-,N/A,,Scattered Clouds,250,2013-07-23 06:53:00
3:53 AM,75.0,71.1,87,29.90,10.0,WSW,10.4,-,N/A,,Scattered Clouds,240,2013-07-23 07:53:00
4:53 AM,75.0,71.1,87,29.90,10.0,WSW,9.2,-,N/A,,Clear,250,2013-07-23 08:53:00
5:53 AM,75.0,71.1,87,29.92,10.0,WSW,9.2,-,0.01,,Scattered Clouds,250,2013-07-23 09:53:00
6:18 AM,75.2,71.6,89,29.93,10.0,WSW,10.4,-,0.01,,Mostly Cloudy,240,2013-07-23 10:18:00
6:27 AM,73.4,71.6,94,29.93,10.0,WSW,6.9,-,0.01,,Scattered Clouds,250,2013-07-23 10:27:00
6:53 AM,73.9,71.1,91,29.92,10.0,WSW,9.2,-,0.01,,Partly Cloudy,240,2013-07-23 10:53:00
6:54 AM,73.4,71.6,94,29.93,10.0,WSW,9.2,-,N/A,,Clear,240,2013-07-23 10:54:00
7:00 AM,73.4,71.6,94,29.93,10.0,WSW,8.1,-,N/A,,Scattered Clouds,240,2013-07-23 11:00:00
7:53 AM,75.9,71.1,85,29.92,10.0,WSW,6.9,-,N/A,,Partly Cloudy,250,2013-07-23 11:53:00
8:53 AM,78.1,70.0,76,29.92,10.0,West,9.2,-,N/A,,Partly Cloudy,260,2013-07-23 12:53:00
9:53 AM,80.1,70.0,71,29.92,10.0,West,13.8,-,N/A,,Scattered Clouds,270,2013-07-23 13:53:00
10:53 AM,82.9,70.0,65,29.92,10.0,West,9.2,-,0.01,,Scattered Clouds,270,2013-07-23 14:53:00
11:53 AM,86.0,70.0,59,29.92,10.0,West,6.9,17.3,N/A,,Scattered Clouds,280,2013-07-23 15:53:00
12:53 PM,88.0,71.1,57,29.91,10.0,West,9.2,-,N/A,,Scattered Clouds,280,2013-07-23 16:53:00
1:53 PM,90.0,70.0,52,29.88,10.0,WNW,10.4,18.4,N/A,,Scattered Clouds,300,2013-07-23 17:53:00
2:53 PM,90.0,70.0,52,29.86,10.0,West,10.4,23.0,N/A,,Scattered Clouds,280,2013-07-23 18:53:00
3:53 PM,91.0,71.1,52,29.83,10.0,WNW,11.5,-,N/A,,Scattered Clouds,290,2013-07-23 19:53:00
4:53 PM,91.0,72.0,53,29.81,10.0,West,10.4,-,N/A,,Partly Cloudy,260,2013-07-23 20:53:00
5:53 PM,91.0,72.0,53,29.81,10.0,WSW,8.1,-,N/A,,Mostly Cloudy,250,2013-07-23 21:53:00
6:53 PM,84.9,73.9,69,29.82,10.0,WSW,10.4,-,N/A,,Mostly Cloudy,240,2013-07-23 22:53:00
7:53 PM,81.0,75.0,82,29.81,10.0,WSW,4.6,-,N/A,,Clear,240,2013-07-23 23:53:00
8:53 PM,80.1,73.9,81,29.84,10.0,SW,5.8,-,N/A,,Clear,230,2013-07-24 00:53:00
9:53 PM,78.1,73.9,87,29.84,10.0,SW,4.6,-,N/A,,Clear,220,2013-07-24 01:53:00
10:53 PM,75.9,73.9,94,29.84,8.0,Calm,Calm,-,N/A,,Clear,0,2013-07-24 02:53:00
11:53 PM,75.0,73.0,94,29.84,7.0,SSW,3.5,-,N/A,,Clear,210,2013-07-24 03:53:00